sensor_id;sensor_type;location;lat;lon;timestamp;P1;durP1;ratioP1;P2;durP2;ratioP2
70388;SDS011;58659;49.050;8.530;2023-10-19T00:00:18;0.87;;;0.67;;
70388;SDS011;58659;49.050;8.530;2023-10-19T00:02:48;1.33;;;1.23;;
70388;SDS011;58659;49.050;8.530;2023-10-19T00:05:16;2.00;;;1.90;;
70388;SDS011;58659;49.050;8.530;2023-10-19T00:07:42;2.07;;;1.87;;
70388;SDS011;58659;49.050;8.530;2023-10-19T00:10:08;0.80;;;0.80;;
70388;SDS011;58659;49.050;8.530;2023-10-19T00:12:34;1.67;;;1.57;;
70388;SDS011;58659;49.050;8.530;2023-10-19T00:14:59;0.87;;;0.87;;
70388;SDS011;58659;49.050;8.530;2023-10-19T00:17:25;1.10;;;1.10;;
70388;SDS011;58659;49.050;8.530;2023-10-19T00:19:52;3.03;;;1.47;;
70388;SDS011;58659;49.050;8.530;2023-10-19T00:22:53;1.00;;;1.00;;
70388;SDS011;58659;49.050;8.530;2023-10-19T00:25:18;2.03;;;1.50;;
70388;SDS011;58659;49.050;8.530;2023-10-19T00:27:44;0.60;;;0.60;;
70388;SDS011;58659;49.050;8.530;2023-10-19T00:30:13;0.63;;;0.63;;
70388;SDS011;58659;49.050;8.530;2023-10-19T00:32:43;1.77;;;1.50;;
70388;SDS011;58659;49.050;8.530;2023-10-19T00:35:08;1.07;;;1.07;;
70388;SDS011;58659;49.050;8.530;2023-10-19T00:37:46;1.10;;;1.10;;
70388;SDS011;58659;49.050;8.530;2023-10-19T00:40:13;1.23;;;1.13;;
70388;SDS011;58659;49.050;8.530;2023-10-19T00:42:58;1.00;;;0.93;;
70388;SDS011;58659;49.050;8.530;2023-10-19T00:45:24;2.00;;;1.90;;
70388;SDS011;58659;49.050;8.530;2023-10-19T00:47:51;0.53;;;0.53;;
70388;SDS011;58659;49.050;8.530;2023-10-19T00:50:18;1.00;;;1.00;;
70388;SDS011;58659;49.050;8.530;2023-10-19T00:52:47;1.23;;;1.13;;
70388;SDS011;58659;49.050;8.530;2023-10-19T00:55:15;1.00;;;1.00;;
70388;SDS011;58659;49.050;8.530;2023-10-19T00:57:40;2.10;;;1.60;;
70388;SDS011;58659;49.050;8.530;2023-10-19T01:00:06;1.00;;;1.00;;
70388;SDS011;58659;49.050;8.530;2023-10-19T01:02:45;1.23;;;1.13;;
70388;SDS011;58659;49.050;8.530;2023-10-19T01:05:11;0.73;;;0.73;;
70388;SDS011;58659;49.050;8.530;2023-10-19T01:07:38;3.90;;;1.40;;
70388;SDS011;58659;49.050;8.530;2023-10-19T01:10:04;3.70;;;2.10;;
70388;SDS011;58659;49.050;8.530;2023-10-19T01:12:37;1.07;;;1.07;;
70388;SDS011;58659;49.050;8.530;2023-10-19T01:15:09;0.60;;;0.60;;
70388;SDS011;58659;49.050;8.530;2023-10-19T01:17:49;1.53;;;1.43;;
70388;SDS011;58659;49.050;8.530;2023-10-19T01:20:19;0.97;;;0.97;;
70388;SDS011;58659;49.050;8.530;2023-10-19T01:22:51;1.00;;;1.00;;
70388;SDS011;58659;49.050;8.530;2023-10-19T01:25:43;1.00;;;1.00;;
70388;SDS011;58659;49.050;8.530;2023-10-19T01:28:15;4.33;;;2.90;;
70388;SDS011;58659;49.050;8.530;2023-10-19T01:30:42;0.70;;;0.70;;
70388;SDS011;58659;49.050;8.530;2023-10-19T01:33:07;1.37;;;1.27;;
70388;SDS011;58659;49.050;8.530;2023-10-19T01:35:38;1.13;;;1.13;;
70388;SDS011;58659;49.050;8.530;2023-10-19T01:38:21;1.50;;;1.40;;
70388;SDS011;58659;49.050;8.530;2023-10-19T01:40:47;0.70;;;0.70;;
70388;SDS011;58659;49.050;8.530;2023-10-19T01:43:13;1.37;;;1.23;;
70388;SDS011;58659;49.050;8.530;2023-10-19T01:45:46;1.03;;;1.03;;
70388;SDS011;58659;49.050;8.530;2023-10-19T01:48:11;1.20;;;1.20;;
70388;SDS011;58659;49.050;8.530;2023-10-19T01:50:38;0.87;;;0.87;;
70388;SDS011;58659;49.050;8.530;2023-10-19T01:53:04;1.50;;;1.40;;
70388;SDS011;58659;49.050;8.530;2023-10-19T01:55:37;0.90;;;0.90;;
70388;SDS011;58659;49.050;8.530;2023-10-19T01:58:03;0.70;;;0.70;;
70388;SDS011;58659;49.050;8.530;2023-10-19T02:00:28;1.63;;;1.23;;
70388;SDS011;58659;49.050;8.530;2023-10-19T02:02:53;1.27;;;1.17;;
70388;SDS011;58659;49.050;8.530;2023-10-19T02:05:19;4.10;;;1.17;;
70388;SDS011;58659;49.050;8.530;2023-10-19T02:07:44;1.90;;;1.80;;
70388;SDS011;58659;49.050;8.530;2023-10-19T02:10:09;2.30;;;1.43;;
70388;SDS011;58659;49.050;8.530;2023-10-19T02:12:35;1.17;;;1.17;;
70388;SDS011;58659;49.050;8.530;2023-10-19T02:15:00;1.37;;;1.37;;
70388;SDS011;58659;49.050;8.530;2023-10-19T02:17:26;0.77;;;0.77;;
70388;SDS011;58659;49.050;8.530;2023-10-19T02:19:51;0.90;;;0.90;;
70388;SDS011;58659;49.050;8.530;2023-10-19T02:22:16;1.43;;;1.33;;
70388;SDS011;58659;49.050;8.530;2023-10-19T02:24:42;1.70;;;1.57;;
70388;SDS011;58659;49.050;8.530;2023-10-19T02:27:07;0.50;;;0.50;;
70388;SDS011;58659;49.050;8.530;2023-10-19T02:29:32;1.47;;;1.37;;
70388;SDS011;58659;49.050;8.530;2023-10-19T02:31:57;0.63;;;0.63;;
70388;SDS011;58659;49.050;8.530;2023-10-19T02:34:28;1.00;;;1.00;;
70388;SDS011;58659;49.050;8.530;2023-10-19T02:36:54;0.53;;;0.53;;
70388;SDS011;58659;49.050;8.530;2023-10-19T02:39:19;1.10;;;1.10;;
70388;SDS011;58659;49.050;8.530;2023-10-19T02:41:48;0.87;;;0.87;;
70388;SDS011;58659;49.050;8.530;2023-10-19T02:44:14;1.20;;;1.20;;
70388;SDS011;58659;49.050;8.530;2023-10-19T02:46:45;0.60;;;0.60;;
70388;SDS011;58659;49.050;8.530;2023-10-19T02:49:11;3.50;;;1.77;;
70388;SDS011;58659;49.050;8.530;2023-10-19T02:51:43;0.73;;;0.73;;
70388;SDS011;58659;49.050;8.530;2023-10-19T02:54:11;1.10;;;1.10;;
70388;SDS011;58659;49.050;8.530;2023-10-19T02:56:44;1.47;;;1.37;;
70388;SDS011;58659;49.050;8.530;2023-10-19T02:59:14;0.60;;;0.60;;
70388;SDS011;58659;49.050;8.530;2023-10-19T03:01:41;0.70;;;0.70;;
70388;SDS011;58659;49.050;8.530;2023-10-19T03:04:09;2.33;;;2.23;;
70388;SDS011;58659;49.050;8.530;2023-10-19T03:06:37;0.53;;;0.53;;
70388;SDS011;58659;49.050;8.530;2023-10-19T03:09:03;0.63;;;0.63;;
70388;SDS011;58659;49.050;8.530;2023-10-19T03:11:41;1.87;;;1.30;;
70388;SDS011;58659;49.050;8.530;2023-10-19T03:14:07;1.70;;;1.60;;
70388;SDS011;58659;49.050;8.530;2023-10-19T03:16:33;2.10;;;1.90;;
70388;SDS011;58659;49.050;8.530;2023-10-19T03:19:00;1.23;;;0.80;;
70388;SDS011;58659;49.050;8.530;2023-10-19T03:21:25;3.87;;;1.17;;
70388;SDS011;58659;49.050;8.530;2023-10-19T03:23:57;0.70;;;0.70;;
70388;SDS011;58659;49.050;8.530;2023-10-19T03:26:23;0.90;;;0.90;;
70388;SDS011;58659;49.050;8.530;2023-10-19T03:28:59;0.80;;;0.80;;
70388;SDS011;58659;49.050;8.530;2023-10-19T03:31:32;0.70;;;0.70;;
70388;SDS011;58659;49.050;8.530;2023-10-19T03:33:57;0.50;;;0.50;;
70388;SDS011;58659;49.050;8.530;2023-10-19T03:36:24;0.53;;;0.53;;
70388;SDS011;58659;49.050;8.530;2023-10-19T03:38:50;1.57;;;1.47;;
70388;SDS011;58659;49.050;8.530;2023-10-19T03:41:21;1.20;;;1.10;;
70388;SDS011;58659;49.050;8.530;2023-10-19T03:43:49;3.20;;;2.10;;
70388;SDS011;58659;49.050;8.530;2023-10-19T03:46:16;0.67;;;0.67;;
70388;SDS011;58659;49.050;8.530;2023-10-19T03:48:49;0.70;;;0.70;;
70388;SDS011;58659;49.050;8.530;2023-10-19T03:51:14;0.70;;;0.70;;
70388;SDS011;58659;49.050;8.530;2023-10-19T03:53:40;1.07;;;1.07;;
70388;SDS011;58659;49.050;8.530;2023-10-19T03:56:19;4.73;;;1.23;;
70388;SDS011;58659;49.050;8.530;2023-10-19T03:58:45;1.47;;;1.47;;
70388;SDS011;58659;49.050;8.530;2023-10-19T04:01:15;1.40;;;1.20;;
70388;SDS011;58659;49.050;8.530;2023-10-19T04:03:41;0.60;;;0.60;;
70388;SDS011;58659;49.050;8.530;2023-10-19T04:06:06;0.93;;;0.93;;
70388;SDS011;58659;49.050;8.530;2023-10-19T04:08:38;0.80;;;0.80;;
70388;SDS011;58659;49.050;8.530;2023-10-19T04:11:03;0.53;;;0.53;;
70388;SDS011;58659;49.050;8.530;2023-10-19T04:13:46;1.90;;;1.23;;
70388;SDS011;58659;49.050;8.530;2023-10-19T04:16:11;4.33;;;1.83;;
70388;SDS011;58659;49.050;8.530;2023-10-19T04:18:37;1.17;;;1.10;;
70388;SDS011;58659;49.050;8.530;2023-10-19T04:21:03;0.57;;;0.57;;
70388;SDS011;58659;49.050;8.530;2023-10-19T04:23:29;1.17;;;1.17;;
70388;SDS011;58659;49.050;8.530;2023-10-19T04:25:59;0.43;;;0.43;;
70388;SDS011;58659;49.050;8.530;2023-10-19T04:28:29;1.00;;;1.00;;
70388;SDS011;58659;49.050;8.530;2023-10-19T04:31:10;2.40;;;1.63;;
70388;SDS011;58659;49.050;8.530;2023-10-19T04:33:38;0.90;;;0.90;;
70388;SDS011;58659;49.050;8.530;2023-10-19T04:36:04;0.60;;;0.60;;
70388;SDS011;58659;49.050;8.530;2023-10-19T04:38:33;1.80;;;1.70;;
70388;SDS011;58659;49.050;8.530;2023-10-19T04:41:08;4.23;;;1.23;;
70388;SDS011;58659;49.050;8.530;2023-10-19T04:43:36;1.00;;;1.00;;
70388;SDS011;58659;49.050;8.530;2023-10-19T04:46:08;0.90;;;0.90;;
70388;SDS011;58659;49.050;8.530;2023-10-19T04:48:40;1.17;;;1.17;;
70388;SDS011;58659;49.050;8.530;2023-10-19T04:51:06;1.30;;;1.23;;
70388;SDS011;58659;49.050;8.530;2023-10-19T04:53:31;1.27;;;1.27;;
70388;SDS011;58659;49.050;8.530;2023-10-19T04:55:57;0.87;;;0.87;;
70388;SDS011;58659;49.050;8.530;2023-10-19T04:58:23;1.03;;;1.03;;
70388;SDS011;58659;49.050;8.530;2023-10-19T05:00:48;0.90;;;0.90;;
70388;SDS011;58659;49.050;8.530;2023-10-19T05:03:13;0.77;;;0.77;;
70388;SDS011;58659;49.050;8.530;2023-10-19T05:05:43;0.80;;;0.80;;
70388;SDS011;58659;49.050;8.530;2023-10-19T05:08:08;1.43;;;1.40;;
70388;SDS011;58659;49.050;8.530;2023-10-19T05:10:33;0.60;;;0.60;;
70388;SDS011;58659;49.050;8.530;2023-10-19T05:12:59;0.90;;;0.90;;
70388;SDS011;58659;49.050;8.530;2023-10-19T05:15:24;0.77;;;0.77;;
70388;SDS011;58659;49.050;8.530;2023-10-19T05:17:49;4.57;;;1.80;;
70388;SDS011;58659;49.050;8.530;2023-10-19T05:20:14;1.20;;;1.20;;
70388;SDS011;58659;49.050;8.530;2023-10-19T05:22:39;0.60;;;0.60;;
70388;SDS011;58659;49.050;8.530;2023-10-19T05:25:05;0.63;;;0.63;;
70388;SDS011;58659;49.050;8.530;2023-10-19T05:27:32;1.00;;;1.00;;
70388;SDS011;58659;49.050;8.530;2023-10-19T05:29:58;1.13;;;1.13;;
70388;SDS011;58659;49.050;8.530;2023-10-19T05:32:23;0.97;;;0.93;;
70388;SDS011;58659;49.050;8.530;2023-10-19T05:34:49;0.70;;;0.70;;
70388;SDS011;58659;49.050;8.530;2023-10-19T05:37:14;0.83;;;0.83;;
70388;SDS011;58659;49.050;8.530;2023-10-19T05:39:41;1.00;;;1.00;;
70388;SDS011;58659;49.050;8.530;2023-10-19T05:42:07;1.33;;;1.33;;
70388;SDS011;58659;49.050;8.530;2023-10-19T05:44:32;0.93;;;0.93;;
70388;SDS011;58659;49.050;8.530;2023-10-19T05:46:58;1.03;;;1.03;;
70388;SDS011;58659;49.050;8.530;2023-10-19T05:49:23;2.03;;;1.50;;
70388;SDS011;58659;49.050;8.530;2023-10-19T05:51:51;0.63;;;0.63;;
70388;SDS011;58659;49.050;8.530;2023-10-19T05:54:17;0.90;;;0.90;;
70388;SDS011;58659;49.050;8.530;2023-10-19T05:56:42;1.90;;;1.13;;
70388;SDS011;58659;49.050;8.530;2023-10-19T05:59:08;0.70;;;0.70;;
70388;SDS011;58659;49.050;8.530;2023-10-19T06:01:35;0.50;;;0.50;;
70388;SDS011;58659;49.050;8.530;2023-10-19T06:04:00;0.50;;;0.50;;
70388;SDS011;58659;49.050;8.530;2023-10-19T06:06:25;1.00;;;1.00;;
70388;SDS011;58659;49.050;8.530;2023-10-19T06:08:51;0.50;;;0.50;;
70388;SDS011;58659;49.050;8.530;2023-10-19T06:11:18;0.70;;;0.70;;
70388;SDS011;58659;49.050;8.530;2023-10-19T06:13:43;6.63;;;3.33;;
70388;SDS011;58659;49.050;8.530;2023-10-19T06:16:08;1.00;;;1.00;;
70388;SDS011;58659;49.050;8.530;2023-10-19T06:18:34;0.60;;;0.60;;
70388;SDS011;58659;49.050;8.530;2023-10-19T06:20:59;0.73;;;0.73;;
70388;SDS011;58659;49.050;8.530;2023-10-19T06:23:27;0.73;;;0.73;;
70388;SDS011;58659;49.050;8.530;2023-10-19T06:25:52;0.70;;;0.70;;
70388;SDS011;58659;49.050;8.530;2023-10-19T06:28:17;0.50;;;0.50;;
70388;SDS011;58659;49.050;8.530;2023-10-19T06:30:42;1.00;;;1.00;;
70388;SDS011;58659;49.050;8.530;2023-10-19T06:33:08;1.00;;;1.00;;
70388;SDS011;58659;49.050;8.530;2023-10-19T06:35:33;0.90;;;0.90;;
70388;SDS011;58659;49.050;8.530;2023-10-19T06:37:59;0.70;;;0.70;;
70388;SDS011;58659;49.050;8.530;2023-10-19T06:40:25;0.60;;;0.60;;
70388;SDS011;58659;49.050;8.530;2023-10-19T06:42:57;1.20;;;1.20;;
70388;SDS011;58659;49.050;8.530;2023-10-19T06:45:22;0.60;;;0.60;;
70388;SDS011;58659;49.050;8.530;2023-10-19T06:47:49;1.90;;;1.73;;
70388;SDS011;58659;49.050;8.530;2023-10-19T06:50:19;1.43;;;1.37;;
70388;SDS011;58659;49.050;8.530;2023-10-19T06:52:45;5.93;;;1.70;;
70388;SDS011;58659;49.050;8.530;2023-10-19T06:55:13;0.70;;;0.70;;
70388;SDS011;58659;49.050;8.530;2023-10-19T06:57:46;0.77;;;0.77;;
70388;SDS011;58659;49.050;8.530;2023-10-19T07:00:13;0.93;;;0.93;;
70388;SDS011;58659;49.050;8.530;2023-10-19T07:02:44;10.10;;;1.47;;
70388;SDS011;58659;49.050;8.530;2023-10-19T07:05:11;0.60;;;0.60;;
70388;SDS011;58659;49.050;8.530;2023-10-19T07:07:38;0.90;;;0.90;;
70388;SDS011;58659;49.050;8.530;2023-10-19T07:10:05;0.60;;;0.60;;
70388;SDS011;58659;49.050;8.530;2023-10-19T07:12:31;0.87;;;0.87;;
70388;SDS011;58659;49.050;8.530;2023-10-19T07:14:56;0.63;;;0.63;;
70388;SDS011;58659;49.050;8.530;2023-10-19T07:17:26;0.80;;;0.80;;
70388;SDS011;58659;49.050;8.530;2023-10-19T07:19:52;0.63;;;0.63;;
70388;SDS011;58659;49.050;8.530;2023-10-19T07:22:17;9.03;;;1.90;;
70388;SDS011;58659;49.050;8.530;2023-10-19T07:24:47;0.50;;;0.50;;
70388;SDS011;58659;49.050;8.530;2023-10-19T07:27:12;0.53;;;0.53;;
70388;SDS011;58659;49.050;8.530;2023-10-19T07:29:43;0.90;;;0.90;;
70388;SDS011;58659;49.050;8.530;2023-10-19T07:32:08;0.60;;;0.60;;
70388;SDS011;58659;49.050;8.530;2023-10-19T07:34:36;1.27;;;1.17;;
70388;SDS011;58659;49.050;8.530;2023-10-19T07:37:02;1.43;;;1.33;;
70388;SDS011;58659;49.050;8.530;2023-10-19T07:39:28;0.60;;;0.60;;
70388;SDS011;58659;49.050;8.530;2023-10-19T07:41:58;0.80;;;0.80;;
70388;SDS011;58659;49.050;8.530;2023-10-19T07:44:23;0.63;;;0.63;;
70388;SDS011;58659;49.050;8.530;2023-10-19T07:46:48;0.60;;;0.60;;
70388;SDS011;58659;49.050;8.530;2023-10-19T07:49:14;0.50;;;0.50;;
70388;SDS011;58659;49.050;8.530;2023-10-19T07:51:41;0.80;;;0.80;;
70388;SDS011;58659;49.050;8.530;2023-10-19T07:54:06;0.70;;;0.70;;
70388;SDS011;58659;49.050;8.530;2023-10-19T07:56:32;1.60;;;1.50;;
70388;SDS011;58659;49.050;8.530;2023-10-19T07:58:59;1.53;;;1.43;;
70388;SDS011;58659;49.050;8.530;2023-10-19T08:01:24;0.60;;;0.60;;
70388;SDS011;58659;49.050;8.530;2023-10-19T08:03:49;1.37;;;1.27;;
70388;SDS011;58659;49.050;8.530;2023-10-19T08:06:15;0.97;;;0.97;;
70388;SDS011;58659;49.050;8.530;2023-10-19T08:08:40;1.37;;;1.27;;
70388;SDS011;58659;49.050;8.530;2023-10-19T08:11:07;2.80;;;1.23;;
70388;SDS011;58659;49.050;8.530;2023-10-19T08:13:33;0.80;;;0.80;;
70388;SDS011;58659;49.050;8.530;2023-10-19T08:15:58;0.70;;;0.70;;
70388;SDS011;58659;49.050;8.530;2023-10-19T08:18:24;1.83;;;1.73;;
70388;SDS011;58659;49.050;8.530;2023-10-19T08:20:49;0.70;;;0.70;;
70388;SDS011;58659;49.050;8.530;2023-10-19T08:23:15;1.23;;;0.80;;
70388;SDS011;58659;49.050;8.530;2023-10-19T08:25:43;0.60;;;0.60;;
70388;SDS011;58659;49.050;8.530;2023-10-19T08:28:09;5.43;;;1.17;;
70388;SDS011;58659;49.050;8.530;2023-10-19T08:30:36;0.70;;;0.70;;
70388;SDS011;58659;49.050;8.530;2023-10-19T08:33:02;0.50;;;0.50;;
70388;SDS011;58659;49.050;8.530;2023-10-19T08:35:27;1.73;;;1.03;;
70388;SDS011;58659;49.050;8.530;2023-10-19T08:37:54;3.67;;;2.43;;
70388;SDS011;58659;49.050;8.530;2023-10-19T08:40:20;5.17;;;2.13;;
70388;SDS011;58659;49.050;8.530;2023-10-19T08:42:47;5.37;;;2.67;;
70388;SDS011;58659;49.050;8.530;2023-10-19T08:45:13;7.20;;;3.00;;
70388;SDS011;58659;49.050;8.530;2023-10-19T08:50:13;5.73;;;1.90;;
70388;SDS011;58659;49.050;8.530;2023-10-19T08:52:39;5.37;;;3.53;;
70388;SDS011;58659;49.050;8.530;2023-10-19T08:55:06;7.47;;;4.03;;
70388;SDS011;58659;49.050;8.530;2023-10-19T08:57:31;6.77;;;4.40;;
70388;SDS011;58659;49.050;8.530;2023-10-19T08:59:56;9.33;;;5.27;;
70388;SDS011;58659;49.050;8.530;2023-10-19T09:02:24;13.30;;;5.77;;
70388;SDS011;58659;49.050;8.530;2023-10-19T09:04:49;10.23;;;5.77;;
70388;SDS011;58659;49.050;8.530;2023-10-19T09:07:16;10.30;;;5.60;;
70388;SDS011;58659;49.050;8.530;2023-10-19T09:09:41;8.83;;;5.10;;
70388;SDS011;58659;49.050;8.530;2023-10-19T09:12:07;13.03;;;4.97;;
70388;SDS011;58659;49.050;8.530;2023-10-19T09:14:35;9.03;;;4.97;;
70388;SDS011;58659;49.050;8.530;2023-10-19T09:17:04;9.97;;;5.20;;
70388;SDS011;58659;49.050;8.530;2023-10-19T09:19:36;9.17;;;5.50;;
70388;SDS011;58659;49.050;8.530;2023-10-19T09:22:02;13.83;;;5.93;;
70388;SDS011;58659;49.050;8.530;2023-10-19T09:24:33;12.03;;;6.00;;
70388;SDS011;58659;49.050;8.530;2023-10-19T09:26:58;11.13;;;5.73;;
70388;SDS011;58659;49.050;8.530;2023-10-19T09:29:23;8.00;;;4.80;;
70388;SDS011;58659;49.050;8.530;2023-10-19T09:31:48;7.17;;;4.47;;
70388;SDS011;58659;49.050;8.530;2023-10-19T09:34:14;7.97;;;4.33;;
70388;SDS011;58659;49.050;8.530;2023-10-19T09:36:42;5.97;;;4.20;;
70388;SDS011;58659;49.050;8.530;2023-10-19T09:39:08;7.53;;;4.57;;
70388;SDS011;58659;49.050;8.530;2023-10-19T09:41:37;7.67;;;5.00;;
70388;SDS011;58659;49.050;8.530;2023-10-19T09:44:04;7.07;;;4.63;;
70388;SDS011;58659;49.050;8.530;2023-10-19T09:46:32;7.67;;;4.00;;
70388;SDS011;58659;49.050;8.530;2023-10-19T09:48:57;5.70;;;3.77;;
70388;SDS011;58659;49.050;8.530;2023-10-19T09:51:23;7.20;;;4.23;;
70388;SDS011;58659;49.050;8.530;2023-10-19T09:53:52;7.33;;;4.13;;
70388;SDS011;58659;49.050;8.530;2023-10-19T09:56:20;6.50;;;3.63;;
70388;SDS011;58659;49.050;8.530;2023-10-19T09:58:47;5.97;;;4.00;;
70388;SDS011;58659;49.050;8.530;2023-10-19T10:01:13;8.53;;;3.23;;
70388;SDS011;58659;49.050;8.530;2023-10-19T10:06:11;7.70;;;4.17;;
70388;SDS011;58659;49.050;8.530;2023-10-19T10:08:37;7.43;;;3.80;;
70388;SDS011;58659;49.050;8.530;2023-10-19T10:11:21;8.03;;;3.77;;
70388;SDS011;58659;49.050;8.530;2023-10-19T10:13:47;9.70;;;4.50;;
70388;SDS011;58659;49.050;8.530;2023-10-19T10:16:16;6.20;;;3.70;;
70388;SDS011;58659;49.050;8.530;2023-10-19T10:18:42;8.27;;;3.57;;
70388;SDS011;58659;49.050;8.530;2023-10-19T10:21:12;6.27;;;3.77;;
70388;SDS011;58659;49.050;8.530;2023-10-19T10:23:42;6.47;;;3.57;;
70388;SDS011;58659;49.050;8.530;2023-10-19T10:26:08;6.77;;;3.63;;
70388;SDS011;58659;49.050;8.530;2023-10-19T10:28:34;6.63;;;4.43;;
70388;SDS011;58659;49.050;8.530;2023-10-19T10:33:42;9.87;;;4.30;;
70388;SDS011;58659;49.050;8.530;2023-10-19T10:36:10;11.73;;;3.83;;
70388;SDS011;58659;49.050;8.530;2023-10-19T10:38:36;6.77;;;3.47;;
70388;SDS011;58659;49.050;8.530;2023-10-19T10:41:02;5.83;;;3.70;;
70388;SDS011;58659;49.050;8.530;2023-10-19T10:43:27;6.43;;;3.80;;
70388;SDS011;58659;49.050;8.530;2023-10-19T10:46:02;8.00;;;3.70;;
70388;SDS011;58659;49.050;8.530;2023-10-19T10:48:27;7.57;;;3.70;;
70388;SDS011;58659;49.050;8.530;2023-10-19T10:50:52;6.17;;;3.63;;
70388;SDS011;58659;49.050;8.530;2023-10-19T10:53:19;18.87;;;4.07;;
70388;SDS011;58659;49.050;8.530;2023-10-19T10:55:44;6.77;;;3.10;;
70388;SDS011;58659;49.050;8.530;2023-10-19T10:58:09;6.57;;;3.63;;
70388;SDS011;58659;49.050;8.530;2023-10-19T11:00:43;7.17;;;3.60;;
70388;SDS011;58659;49.050;8.530;2023-10-19T11:03:08;5.57;;;3.83;;
70388;SDS011;58659;49.050;8.530;2023-10-19T11:05:35;8.50;;;3.60;;
70388;SDS011;58659;49.050;8.530;2023-10-19T11:08:07;5.13;;;3.30;;
70388;SDS011;58659;49.050;8.530;2023-10-19T11:10:40;6.83;;;3.27;;
70388;SDS011;58659;49.050;8.530;2023-10-19T11:13:07;6.70;;;3.30;;
70388;SDS011;58659;49.050;8.530;2023-10-19T11:15:35;8.73;;;3.23;;
70388;SDS011;58659;49.050;8.530;2023-10-19T11:18:03;11.20;;;4.03;;
70388;SDS011;58659;49.050;8.530;2023-10-19T11:20:29;6.40;;;3.70;;
70388;SDS011;58659;49.050;8.530;2023-10-19T11:22:55;6.97;;;3.77;;
70388;SDS011;58659;49.050;8.530;2023-10-19T11:25:25;6.63;;;3.93;;
70388;SDS011;58659;49.050;8.530;2023-10-19T11:27:53;6.43;;;4.10;;
70388;SDS011;58659;49.050;8.530;2023-10-19T11:30:22;12.53;;;4.77;;
70388;SDS011;58659;49.050;8.530;2023-10-19T11:32:48;10.73;;;5.07;;
70388;SDS011;58659;49.050;8.530;2023-10-19T11:35:18;9.90;;;5.00;;
70388;SDS011;58659;49.050;8.530;2023-10-19T11:37:47;7.50;;;4.83;;
70388;SDS011;58659;49.050;8.530;2023-10-19T11:40:12;8.03;;;5.17;;
70388;SDS011;58659;49.050;8.530;2023-10-19T11:42:38;8.33;;;5.40;;
70388;SDS011;58659;49.050;8.530;2023-10-19T11:45:03;13.20;;;5.93;;
70388;SDS011;58659;49.050;8.530;2023-10-19T11:47:28;7.97;;;5.03;;
70388;SDS011;58659;49.050;8.530;2023-10-19T11:49:54;9.77;;;5.23;;
70388;SDS011;58659;49.050;8.530;2023-10-19T11:52:19;13.20;;;5.47;;
70388;SDS011;58659;49.050;8.530;2023-10-19T11:54:44;11.20;;;5.33;;
70388;SDS011;58659;49.050;8.530;2023-10-19T11:57:09;14.27;;;6.13;;
70388;SDS011;58659;49.050;8.530;2023-10-19T11:59:35;14.87;;;6.13;;
70388;SDS011;58659;49.050;8.530;2023-10-19T12:02:00;10.87;;;5.47;;
70388;SDS011;58659;49.050;8.530;2023-10-19T12:04:28;16.00;;;7.50;;
70388;SDS011;58659;49.050;8.530;2023-10-19T12:06:54;15.57;;;6.90;;
70388;SDS011;58659;49.050;8.530;2023-10-19T12:09:20;11.77;;;6.20;;
70388;SDS011;58659;49.050;8.530;2023-10-19T12:11:49;11.20;;;5.67;;
70388;SDS011;58659;49.050;8.530;2023-10-19T12:14:14;10.47;;;5.77;;
70388;SDS011;58659;49.050;8.530;2023-10-19T12:16:40;10.77;;;6.27;;
70388;SDS011;58659;49.050;8.530;2023-10-19T12:19:05;10.20;;;5.67;;
70388;SDS011;58659;49.050;8.530;2023-10-19T12:21:30;16.13;;;5.97;;
70388;SDS011;58659;49.050;8.530;2023-10-19T12:23:58;14.83;;;6.90;;
70388;SDS011;58659;49.050;8.530;2023-10-19T12:26:26;10.43;;;5.97;;
70388;SDS011;58659;49.050;8.530;2023-10-19T12:28:51;19.13;;;6.97;;
70388;SDS011;58659;49.050;8.530;2023-10-19T12:31:16;17.20;;;7.03;;
70388;SDS011;58659;49.050;8.530;2023-10-19T12:33:43;18.77;;;6.93;;
70388;SDS011;58659;49.050;8.530;2023-10-19T12:36:09;15.37;;;6.73;;
70388;SDS011;58659;49.050;8.530;2023-10-19T12:38:53;17.60;;;6.90;;
70388;SDS011;58659;49.050;8.530;2023-10-19T12:41:19;16.07;;;6.80;;
70388;SDS011;58659;49.050;8.530;2023-10-19T12:43:44;14.73;;;6.30;;
70388;SDS011;58659;49.050;8.530;2023-10-19T12:46:13;13.93;;;6.50;;
70388;SDS011;58659;49.050;8.530;2023-10-19T12:48:39;21.40;;;8.30;;
70388;SDS011;58659;49.050;8.530;2023-10-19T12:51:04;33.87;;;10.33;;
70388;SDS011;58659;49.050;8.530;2023-10-19T12:53:32;24.30;;;8.77;;
70388;SDS011;58659;49.050;8.530;2023-10-19T12:55:57;13.47;;;6.23;;
70388;SDS011;58659;49.050;8.530;2023-10-19T12:58:23;12.93;;;5.83;;
70388;SDS011;58659;49.050;8.530;2023-10-19T13:00:48;12.67;;;6.00;;
70388;SDS011;58659;49.050;8.530;2023-10-19T13:03:16;11.93;;;5.97;;
70388;SDS011;58659;49.050;8.530;2023-10-19T13:05:43;11.13;;;6.17;;
70388;SDS011;58659;49.050;8.530;2023-10-19T13:08:11;15.47;;;6.13;;
70388;SDS011;58659;49.050;8.530;2023-10-19T13:10:41;11.10;;;5.83;;
70388;SDS011;58659;49.050;8.530;2023-10-19T13:13:13;15.57;;;6.10;;
70388;SDS011;58659;49.050;8.530;2023-10-19T13:15:40;11.77;;;6.03;;
70388;SDS011;58659;49.050;8.530;2023-10-19T13:18:06;14.63;;;7.17;;
70388;SDS011;58659;49.050;8.530;2023-10-19T13:20:32;13.57;;;6.60;;
70388;SDS011;58659;49.050;8.530;2023-10-19T13:23:10;12.00;;;6.50;;
70388;SDS011;58659;49.050;8.530;2023-10-19T13:25:41;12.47;;;6.57;;
70388;SDS011;58659;49.050;8.530;2023-10-19T13:28:13;14.60;;;7.40;;
70388;SDS011;58659;49.050;8.530;2023-10-19T13:30:39;12.53;;;7.10;;
70388;SDS011;58659;49.050;8.530;2023-10-19T13:33:05;15.13;;;7.37;;
70388;SDS011;58659;49.050;8.530;2023-10-19T13:35:32;20.77;;;9.63;;
70388;SDS011;58659;49.050;8.530;2023-10-19T13:37:57;24.07;;;10.17;;
70388;SDS011;58659;49.050;8.530;2023-10-19T13:40:22;15.13;;;8.53;;
70388;SDS011;58659;49.050;8.530;2023-10-19T13:42:48;20.07;;;9.27;;
70388;SDS011;58659;49.050;8.530;2023-10-19T13:45:13;19.73;;;9.00;;
70388;SDS011;58659;49.050;8.530;2023-10-19T13:47:39;19.50;;;8.43;;
70388;SDS011;58659;49.050;8.530;2023-10-19T13:50:05;17.90;;;8.83;;
70388;SDS011;58659;49.050;8.530;2023-10-19T13:52:32;23.77;;;9.70;;
70388;SDS011;58659;49.050;8.530;2023-10-19T13:54:57;19.43;;;9.13;;
70388;SDS011;58659;49.050;8.530;2023-10-19T13:57:22;19.20;;;9.87;;
70388;SDS011;58659;49.050;8.530;2023-10-19T13:59:47;20.33;;;9.43;;
70388;SDS011;58659;49.050;8.530;2023-10-19T14:02:14;18.37;;;8.47;;
70388;SDS011;58659;49.050;8.530;2023-10-19T14:04:42;14.07;;;7.63;;
70388;SDS011;58659;49.050;8.530;2023-10-19T14:07:07;16.13;;;7.40;;
70388;SDS011;58659;49.050;8.530;2023-10-19T14:09:33;13.47;;;6.37;;
70388;SDS011;58659;49.050;8.530;2023-10-19T14:11:58;13.20;;;6.33;;
70388;SDS011;58659;49.050;8.530;2023-10-19T14:14:29;10.93;;;5.93;;
70388;SDS011;58659;49.050;8.530;2023-10-19T14:16:54;11.63;;;6.73;;
70388;SDS011;58659;49.050;8.530;2023-10-19T14:19:19;13.03;;;6.17;;
70388;SDS011;58659;49.050;8.530;2023-10-19T14:21:44;11.30;;;6.00;;
70388;SDS011;58659;49.050;8.530;2023-10-19T14:24:12;10.80;;;5.83;;
70388;SDS011;58659;49.050;8.530;2023-10-19T14:26:37;13.40;;;6.00;;
70388;SDS011;58659;49.050;8.530;2023-10-19T14:29:03;13.03;;;5.93;;
70388;SDS011;58659;49.050;8.530;2023-10-19T14:31:28;9.10;;;4.93;;
70388;SDS011;58659;49.050;8.530;2023-10-19T14:33:54;11.40;;;5.87;;
70388;SDS011;58659;49.050;8.530;2023-10-19T14:36:19;12.00;;;7.07;;
70388;SDS011;58659;49.050;8.530;2023-10-19T14:38:44;11.83;;;7.00;;
70388;SDS011;58659;49.050;8.530;2023-10-19T14:41:11;12.97;;;6.53;;
70388;SDS011;58659;49.050;8.530;2023-10-19T14:43:36;13.33;;;6.93;;
70388;SDS011;58659;49.050;8.530;2023-10-19T14:46:04;13.50;;;7.23;;
70388;SDS011;58659;49.050;8.530;2023-10-19T14:48:29;15.40;;;7.00;;
70388;SDS011;58659;49.050;8.530;2023-10-19T14:50:57;11.10;;;6.73;;
70388;SDS011;58659;49.050;8.530;2023-10-19T14:53:23;12.60;;;6.43;;